| time (UTC) | temp C | wind direction | speed KPH | gust KPH | rain 1hr cm | rain 24hr cm | rain mn cm | humidity % | barometer mb |
| 20260507221513 | 16 | 274 | 3.2 | 8.0 | 0.00 | 0.33 | 0.08 | 26 | 1007.4 |
| 20260507221011 | 16 | 292 | 6.4 | 11.3 | 0.00 | 0.33 | 0.08 | 26 | 1007.3 |
| 20260507220509 | 16 | 280 | 6.4 | 17.7 | 0.00 | 0.33 | 0.08 | 25 | 1007.5 |
| 20260507220249 | 16 | 292 | 8.0 | 17.7 | 0.00 | 0.33 | 0.08 | 26 | 1007.5 |
| 20260507215507 | 16 | 272 | 6.4 | 16.1 | 0.00 | 0.33 | 0.08 | 25 | 1007.3 |
| 20260507215007 | 16 | 328 | 4.8 | 12.9 | 0.00 | 0.36 | 0.08 | 26 | 1007.1 |
| 20260507214506 | 16 | 279 | 6.4 | 17.7 | 0.00 | 0.36 | 0.08 | 26 | 1007.1 |
| 20260507214006 | 16 | 264 | 6.4 | 17.7 | 0.00 | 0.36 | 0.08 | 25 | 1007.1 |
| 20260507213753 | 16 | 317 | 6.4 | 16.1 | 0.00 | 0.36 | 0.08 | 26 | 1007.0 |
| 20260507213006 | 17 | 234 | 8.0 | 20.9 | 0.00 | 0.36 | 0.08 | 25 | 1007.0 |
| 20260507212504 | 17 | 311 | 6.4 | 20.9 | 0.00 | 0.36 | 0.08 | 25 | 1006.9 |
| 20260507212006 | 16 | 306 | 8.0 | 16.1 | 0.00 | 0.36 | 0.08 | 25 | 1007.0 |
| 20260507211504 | 16 | 295 | 6.4 | 16.1 | 0.00 | 0.38 | 0.08 | 25 | 1007.0 |
| 20260507211005 | 17 | 276 | 6.4 | 16.1 | 0.00 | 0.38 | 0.08 | 26 | 1007.1 |
| 20260507210506 | 17 | 259 | 6.4 | 16.1 | 0.00 | 0.38 | 0.08 | 25 | 1007.1 |
| 20260507210246 | 17 | 318 | 4.8 | 14.5 | 0.00 | 0.38 | 0.08 | 26 | 1007.0 |
| 20260507205503 | 17 | 307 | 6.4 | 14.5 | 0.00 | 0.38 | 0.08 | 26 | 1007.0 |
| 20260507205005 | 17 | 287 | 6.4 | 14.5 | 0.00 | 0.41 | 0.08 | 25 | 1007.0 |
| 20260507204504 | 17 | 282 | 6.4 | 16.1 | 0.00 | 0.41 | 0.08 | 27 | 1007.0 |
| 20260507204004 | 17 | 244 | 8.0 | 25.7 | 0.00 | 0.41 | 0.08 | 28 | 1006.9 |
| 20260507203503 | 17 | 276 | 9.7 | 25.7 | 0.00 | 0.43 | 0.08 | 27 | 1006.9 |
| 20260507203252 | 17 | 223 | 9.7 | 20.9 | 0.00 | 0.43 | 0.08 | 26 | 1006.7 |
| 20260507202803 | 17 | 299 | 8.0 | 20.9 | 0.00 | 0.46 | 0.08 | 25 | 1006.8 |
| 20260507202005 | 17 | 25 | 6.4 | 20.9 | 0.00 | 0.46 | 0.08 | 27 | 1006.9 |
| 20260507201503 | 17 | 296 | 8.0 | 20.9 | 0.00 | 0.46 | 0.08 | 26 | 1006.8 |
| 20260507201004 | 17 | 251 | 8.0 | 16.1 | 0.00 | 0.48 | 0.08 | 24 | 1007.0 |
| 20260507200503 | 17 | 272 | 6.4 | 16.1 | 0.00 | 0.51 | 0.08 | 26 | 1006.9 |
| 20260507200005 | 18 | 310 | 8.0 | 20.9 | 0.00 | 0.51 | 0.08 | 25 | 1006.9 |
| 20260507195503 | 18 | 217 | 8.0 | 20.9 | 0.00 | 0.51 | 0.08 | 26 | 1006.8 |
| 20260507195008 | 18 | 215 | 6.4 | 19.3 | 0.00 | 0.51 | 0.08 | 25 | 1006.9 |
| 20260507194504 | 18 | 26 | 4.8 | 11.3 | 0.00 | 0.51 | 0.08 | 24 | 1006.9 |
| 20260507194008 | 18 | 284 | 6.4 | 20.9 | 0.00 | 0.51 | 0.08 | 24 | 1007.0 |
| 20260507193500 | 18 | 199 | 8.0 | 20.9 | 0.00 | 0.51 | 0.08 | 24 | 1007.0 |
| 20260507193232 | 18 | 264 | 6.4 | 20.9 | 0.00 | 0.53 | 0.08 | 24 | 1007.1 |
| 20260507192449 | 18 | 237 | 3.2 | 20.9 | 0.00 | 0.53 | 0.08 | 27 | 1007.1 |
| 20260507191943 | 17 | 253 | 6.4 | 19.3 | 0.00 | 0.53 | 0.08 | 25 | 1007.2 |
| 20260507191442 | 17 | 341 | 8.0 | 19.3 | 0.00 | 0.56 | 0.08 | 24 | 1007.4 |
| 20260507190947 | 17 | 299 | 6.4 | 16.1 | 0.00 | 0.56 | 0.08 | 24 | 1007.3 |
| 20260507190442 | 17 | 283 | 8.0 | 24.1 | 0.00 | 0.56 | 0.08 | 25 | 1007.3 |
| 20260507185941 | 17 | 341 | 9.7 | 24.1 | 0.00 | 0.56 | 0.08 | 24 | 1007.5 |
| 20260507185440 | 17 | 202 | 8.0 | 17.7 | 0.00 | 0.56 | 0.08 | 28 | 1007.4 |
| 20260507184942 | 17 | 312 | 8.0 | 17.7 | 0.00 | 0.56 | 0.08 | 24 | 1007.4 |
| 20260507184731 | 17 | 324 | 8.0 | 19.3 | 0.00 | 0.56 | 0.08 | 25 | 1007.5 |
| 20260507183941 | 17 | 289 | 6.4 | 19.3 | 0.00 | 0.56 | 0.08 | 24 | 1007.5 |
| 20260507183442 | 17 | 276 | 6.4 | 17.7 | 0.00 | 0.56 | 0.08 | 28 | 1007.3 |
| 20260507182944 | 17 | 303 | 9.7 | 27.4 | 0.00 | 0.56 | 0.08 | 24 | 1007.5 |
| 20260507182440 | 17 | 220 | 9.7 | 27.4 | 0.00 | 0.56 | 0.08 | 27 | 1007.5 |
| 20260507182217 | 17 | 351 | 8.0 | 24.1 | 0.00 | 0.56 | 0.08 | 24 | 1007.6 |
| 20260507181438 | 17 | 335 | 9.7 | 24.1 | 0.00 | 0.56 | 0.08 | 24 | 1007.8 |
| 20260507180940 | 17 | 273 | 8.0 | 20.9 | 0.00 | 0.56 | 0.08 | 25 | 1007.7 |
| 20260507180438 | 17 | 351 | 6.4 | 14.5 | 0.00 | 0.56 | 0.08 | 25 | 1007.7 |
| 20260507175937 | 17 | 278 | 9.7 | 24.1 | 0.00 | 0.56 | 0.08 | 25 | 1007.7 |
| 20260507175441 | 17 | 290 | 11.3 | 24.1 | 0.00 | 0.56 | 0.08 | 25 | 1007.7 |
| 20260507174939 | 17 | 282 | 6.4 | 22.5 | 0.00 | 0.56 | 0.08 | 26 | 1007.7 |
| 20260507174440 | 17 | 228 | 6.4 | 17.7 | 0.00 | 0.56 | 0.08 | 31 | 1007.7 |
| 20260507174215 | 17 | 259 | 8.0 | 19.3 | 0.00 | 0.56 | 0.08 | 29 | 1007.7 |
| 20260507173438 | 17 | 299 | 6.4 | 19.3 | 0.00 | 0.56 | 0.08 | 27 | 1007.6 |
| 20260507172938 | 17 | 227 | 4.8 | 12.9 | 0.00 | 0.56 | 0.08 | 31 | 1007.5 |
| 20260507172440 | 17 | 315 | 6.4 | 17.7 | 0.00 | 0.56 | 0.08 | 29 | 1007.6 |
| 20260507172220 | 17 | 303 | 6.4 | 17.7 | 0.00 | 0.56 | 0.08 | 28 | 1007.7 |
| 20260507171438 | 16 | 253 | 4.8 | 16.1 | 0.00 | 0.56 | 0.08 | 32 | 1007.7 |
| 20260507170939 | 16 | 302 | 6.4 | 17.7 | 0.00 | 0.56 | 0.08 | 32 | 1007.9 |
| 20260507170440 | 16 | 278 | 8.0 | 25.7 | 0.00 | 0.56 | 0.08 | 32 | 1008.0 |
| 20260507165939 | 16 | 242 | 9.7 | 25.7 | 0.00 | 0.56 | 0.08 | 31 | 1008.1 |
| 20260507165436 | 16 | 287 | 9.7 | 22.5 | 0.00 | 0.56 | 0.08 | 31 | 1008.1 |
| 20260507164936 | 16 | 247 | 9.7 | 20.9 | 0.00 | 0.56 | 0.08 | 36 | 1008.1 |
| 20260507164435 | 16 | 308 | 8.0 | 20.9 | 0.00 | 0.56 | 0.08 | 30 | 1008.2 |
| 20260507164216 | 16 | 228 | 8.0 | 17.7 | 0.00 | 0.56 | 0.08 | 33 | 1008.2 |
| 20260507163431 | 16 | 280 | 9.7 | 22.5 | 0.00 | 0.56 | 0.08 | 34 | 1008.2 |
| 20260507162932 | 16 | 250 | 8.0 | 22.5 | 0.00 | 0.56 | 0.08 | 40 | 1008.3 |
| 20260507162431 | 16 | 276 | 8.0 | 22.5 | 0.00 | 0.56 | 0.08 | 37 | 1008.2 |
| 20260507162234 | 16 | 297 | 6.4 | 19.3 | 0.00 | 0.56 | 0.08 | 40 | 1008.3 |
| 20260507162230 | 15 | 322 | 6.4 | 16.1 | 0.00 | 0.56 | 0.08 | 42 | 1008.3 |
| 20260507160932 | 15 | 256 | 8.0 | 17.7 | 0.00 | 0.56 | 0.08 | 41 | 1008.4 |
| 20260507160716 | 15 | 272 | 6.4 | 17.7 | 0.00 | 0.56 | 0.08 | 45 | 1008.3 |
| 20260507155927 | 15 | 272 | 6.4 | 17.7 | 0.00 | 0.56 | 0.08 | 47 | 1008.3 |
| 20260507155721 | 15 | 305 | 6.4 | 16.1 | 0.00 | 0.56 | 0.08 | 48 | 1008.3 |
| 20260507155006 | 15 | 271 | 8.0 | 19.3 | 0.00 | 0.56 | 0.08 | 48 | 1008.5 |
| 20260507154954 | 15 | 303 | 8.0 | 14.5 | 0.00 | 0.56 | 0.08 | 48 | 1008.5 |
| 20260507154208 | 15 | 324 | 6.4 | 19.3 | 0.00 | 0.56 | 0.08 | 48 | 1008.4 |
| 20260507153428 | 15 | 310 | 4.8 | 14.5 | 0.00 | 0.56 | 0.08 | 49 | 1008.5 |
| 20260507152922 | 15 | 288 | 6.4 | 17.7 | 0.00 | 0.56 | 0.08 | 49 | 1008.6 |
| 20260507152414 | 15 | 285 | 6.4 | 17.7 | 0.00 | 0.56 | 0.08 | 49 | 1008.7 |
| 20260507151912 | 15 | 294 | 4.8 | 16.1 | 0.00 | 0.56 | 0.08 | 50 | 1008.7 |
| 20260507151414 | 14 | 355 | 4.8 | 14.5 | 0.00 | 0.56 | 0.08 | 51 | 1008.8 |
| 20260507150912 | 14 | 239 | 4.8 | 12.9 | 0.00 | 0.56 | 0.08 | 49 | 1008.9 |
| 20260507150657 | 15 | 293 | 3.2 | 12.9 | 0.00 | 0.56 | 0.08 | 50 | 1009.0 |
| 20260507145910 | 15 | 215 | 4.8 | 12.9 | 0.00 | 0.56 | 0.08 | 50 | 1009.0 |
| 20260507145409 | 15 | 297 | 3.2 | 12.9 | 0.00 | 0.56 | 0.08 | 49 | 1009.2 |
| 20260507144909 | 15 | 316 | 4.8 | 11.3 | 0.00 | 0.56 | 0.08 | 49 | 1009.1 |
| 20260507144658 | 15 | 292 | 4.8 | 12.9 | 0.00 | 0.56 | 0.08 | 52 | 1009.1 |
| 20260507143905 | 14 | 222 | 3.2 | 12.9 | 0.00 | 0.56 | 0.08 | 52 | 1009.2 |
| 20260507143405 | 14 | 247 | 3.2 | 12.9 | 0.00 | 0.56 | 0.08 | 50 | 1009.1 |
| 20260507142903 | 14 | 295 | 4.8 | 12.9 | 0.00 | 0.56 | 0.08 | 51 | 1009.1 |
| 20260507142404 | 14 | 286 | 4.8 | 11.3 | 0.00 | 0.56 | 0.08 | 49 | 1009.1 |
| 20260507141902 | 14 | 243 | 4.8 | 12.9 | 0.00 | 0.56 | 0.08 | 49 | 1009.1 |
| 20260507141403 | 14 | 207 | 4.8 | 12.9 | 0.00 | 0.56 | 0.08 | 50 | 1009.2 |
| 20260507141145 | 14 | 21 | 6.4 | 16.1 | 0.00 | 0.56 | 0.08 | 50 | 1009.1 |
| 20260507140651 | 14 | 290 | 6.4 | 16.1 | 0.00 | 0.56 | 0.08 | 50 | 1009.1 |
| 20260507135905 | 14 | 213 | 4.8 | 11.3 | 0.00 | 0.56 | 0.08 | 51 | 1009.1 |
| 20260507135651 | 14 | 309 | 3.2 | 9.7 | 0.00 | 0.56 | 0.08 | 52 | 1009.1 |
| 20260507134906 | 14 | 265 | 1.6 | 6.4 | 0.00 | 0.56 | 0.08 | 53 | 1009.0 |
| 20260507134354 | 13 | 301 | 3.2 | 8.0 | 0.00 | 0.56 | 0.08 | 54 | 1009.0 |
| 20260507134131 | 13 | 276 | 4.8 | 11.3 | 0.00 | 0.56 | 0.08 | 54 | 1009.0 |
| 20260507133354 | 13 | 286 | 4.8 | 11.3 | 0.00 | 0.56 | 0.08 | 55 | 1009.2 |
| 20260507132852 | 13 | 274 | 4.8 | 12.9 | 0.00 | 0.56 | 0.08 | 58 | 1009.3 |
| 20260507132350 | 13 | 301 | 4.8 | 12.9 | 0.00 | 0.56 | 0.08 | 59 | 1009.3 |
| 20260507131850 | 12 | 288 | 4.8 | 12.9 | 0.00 | 0.56 | 0.08 | 59 | 1009.5 |
| 20260507131350 | 12 | 251 | 4.8 | 9.7 | 0.00 | 0.56 | 0.08 | 61 | 1009.5 |
| 20260507130851 | 12 | 322 | 4.8 | 12.9 | 0.00 | 0.56 | 0.08 | 61 | 1009.5 |
| 20260507130349 | 12 | 305 | 4.8 | 12.9 | 0.00 | 0.56 | 0.08 | 62 | 1009.5 |
| 20260507125851 | 12 | 282 | 4.8 | 9.7 | 0.00 | 0.56 | 0.08 | 63 | 1009.6 |
| 20260507125350 | 11 | 277 | 4.8 | 11.3 | 0.00 | 0.56 | 0.08 | 64 | 1009.6 |
| 20260507124850 | 11 | 299 | 6.4 | 12.9 | 0.00 | 0.56 | 0.08 | 65 | 1009.7 |
| 20260507124350 | 11 | 269 | 6.4 | 14.5 | 0.00 | 0.56 | 0.08 | 66 | 1009.6 |
| 20260507123850 | 11 | 276 | 4.8 | 14.5 | 0.00 | 0.56 | 0.08 | 67 | 1009.6 |
| 20260507123350 | 10 | 304 | 4.8 | 14.5 | 0.00 | 0.56 | 0.08 | 68 | 1009.7 |
| 20260507123138 | 10 | 284 | 6.4 | 14.5 | 0.00 | 0.56 | 0.08 | 69 | 1009.6 |
| 20260507122349 | 10 | 286 | 4.8 | 12.9 | 0.00 | 0.56 | 0.08 | 71 | 1009.8 |
| 20260507121852 | 10 | 267 | 3.2 | 8.0 | 0.00 | 0.56 | 0.08 | 71 | 1009.7 |
| 20260507121347 | 10 | 293 | 4.8 | 9.7 | 0.00 | 0.56 | 0.08 | 72 | 1009.7 |
| 20260507120847 | 10 | 297 | 4.8 | 9.7 | 0.00 | 0.56 | 0.08 | 72 | 1009.8 |
| 20260507120635 | 10 | 307 | 4.8 | 9.7 | 0.00 | 0.56 | 0.08 | 72 | 1009.9 |
| 20260507115848 | 10 | 307 | 4.8 | 9.7 | 0.00 | 0.56 | 0.08 | 73 | 1009.8 |
| 20260507115644 | 9 | 290 | 3.2 | 9.7 | 0.00 | 0.56 | 0.08 | 73 | 1009.7 |
| 20260507114847 | 9 | 274 | 3.2 | 6.4 | 0.00 | 0.56 | 0.08 | 73 | 1009.6 |
| 20260507114348 | 9 | 290 | 3.2 | 9.7 | 0.00 | 0.56 | 0.08 | 73 | 1009.6 |
| 20260507114131 | 9 | 269 | 3.2 | 9.7 | 0.00 | 0.56 | 0.08 | 74 | 1009.6 |
| 20260507113347 | 9 | 274 | 3.2 | 8.0 | 0.00 | 0.56 | 0.08 | 74 | 1009.7 |
| 20260507112846 | 9 | 282 | 1.6 | 4.8 | 0.00 | 0.56 | 0.08 | 74 | 1009.6 |
| 20260507112345 | 9 | 284 | 1.6 | 4.8 | 0.00 | 0.56 | 0.08 | 74 | 1009.5 |
| 20260507111845 | 9 | 290 | 1.6 | 4.8 | 0.00 | 0.56 | 0.08 | 74 | 1009.4 |
| 20260507111346 | 9 | 290 | 1.6 | 4.8 | 0.00 | 0.56 | 0.08 | 75 | 1009.5 |
| 20260507110845 | 8 | 276 | 0.0 | 3.2 | 0.00 | 0.56 | 0.08 | 75 | 1009.5 |
| 20260507110638 | 8 | 276 | 0.0 | 3.2 | 0.00 | 0.56 | 0.08 | 75 | 1009.5 |
| 20260507105847 | 8 | 280 | 1.6 | 4.8 | 0.00 | 0.56 | 0.08 | 75 | 1009.6 |
| 20260507105343 | 8 | 280 | 1.6 | 4.8 | 0.00 | 0.56 | 0.08 | 75 | 1009.7 |
| 20260507104843 | 8 | 312 | 1.6 | 3.2 | 0.00 | 0.56 | 0.08 | 75 | 1009.5 |
| 20260507104345 | 8 | 317 | 1.6 | 3.2 | 0.00 | 0.56 | 0.08 | 75 | 1009.3 |
| 20260507103842 | 8 | 318 | 1.6 | 3.2 | 0.00 | 0.56 | 0.08 | 75 | 1009.0 |
| 20260507103344 | 8 | 318 | 0.0 | 3.2 | 0.00 | 0.56 | 0.08 | 75 | 1009.1 |
| 20260507102839 | 8 | 318 | 1.6 | 6.4 | 0.00 | 0.56 | 0.08 | 75 | 1008.8 |
| 20260507102341 | 8 | 292 | 1.6 | 6.4 | 0.00 | 0.56 | 0.08 | 75 | 1008.9 |
| 20260507101839 | 8 | 263 | 3.2 | 8.0 | 0.00 | 0.56 | 0.08 | 75 | 1008.7 |
| 20260507101340 | 8 | 307 | 3.2 | 8.0 | 0.00 | 0.56 | 0.08 | 76 | 1008.7 |
| 20260507100840 | 8 | 306 | 3.2 | 8.0 | 0.00 | 0.56 | 0.08 | 76 | 1008.9 |
| 20260507100339 | 8 | 299 | 3.2 | 6.4 | 0.00 | 0.56 | 0.08 | 76 | 1008.9 |
| 20260507095839 | 8 | 303 | 3.2 | 8.0 | 0.00 | 0.56 | 0.08 | 76 | 1008.7 |
| 20260507095339 | 9 | 332 | 3.2 | 8.0 | 0.00 | 0.56 | 0.08 | 76 | 1008.7 |
| 20260507095114 | 9 | 292 | 3.2 | 6.4 | 0.00 | 0.56 | 0.08 | 77 | 1008.9 |
| 20260507094335 | 9 | 302 | 1.6 | 6.4 | 0.00 | 0.56 | 0.08 | 77 | 1009.3 |
| 20260507093833 | 9 | 290 | 1.6 | 4.8 | 0.00 | 0.56 | 0.08 | 77 | 1008.9 |
| 20260507093618 | 9 | 274 | 0.0 | 3.2 | 0.00 | 0.56 | 0.08 | 77 | 1008.7 |
| 20260507092833 | 9 | 274 | 1.6 | 3.2 | 0.00 | 0.56 | 0.08 | 77 | 1009.2 |
| 20260507092333 | 9 | 276 | 1.6 | 3.2 | 0.00 | 0.56 | 0.08 | 77 | 1008.9 |
| 20260507091831 | 9 | 276 | 1.6 | 4.8 | 0.00 | 0.56 | 0.08 | 77 | 1008.9 |
| 20260507091613 | 9 | 272 | 1.6 | 6.4 | 0.00 | 0.56 | 0.08 | 78 | 1009.1 |
| 20260507090832 | 10 | 301 | 1.6 | 6.4 | 0.00 | 0.56 | 0.08 | 78 | 1009.2 |
| 20260507090618 | 10 | 222 | 1.6 | 4.8 | 0.00 | 0.56 | 0.08 | 78 | 1009.3 |
| 20260507085909 | 10 | 282 | 0.0 | 3.2 | 0.00 | 0.56 | 0.08 | 78 | 1008.9 |
| 20260507085856 | 10 | 255 | 1.6 | 4.8 | 0.00 | 0.56 | 0.08 | 78 | 1009.0 |
| 20260507084830 | 10 | 282 | 1.6 | 4.8 | 0.03 | 0.56 | 0.08 | 78 | 1008.9 |
| 20260507084330 | 10 | 297 | 1.6 | 4.8 | 0.03 | 0.56 | 0.08 | 78 | 1008.7 |
| 20260507083829 | 10 | 302 | 1.6 | 4.8 | 0.03 | 0.56 | 0.08 | 78 | 1008.8 |
| 20260507083330 | 10 | 261 | 3.2 | 8.0 | 0.03 | 0.56 | 0.08 | 78 | 1008.8 |
| 20260507083106 | 10 | 64 | 3.2 | 8.0 | 0.03 | 0.56 | 0.08 | 78 | 1008.4 |
| 20260507082331 | 10 | 300 | 1.6 | 4.8 | 0.03 | 0.56 | 0.08 | 79 | 1008.5 |
| 20260507082105 | 10 | 276 | 0.0 | 4.8 | 0.03 | 0.56 | 0.08 | 79 | 1008.5 |
| 20260507081326 | 10 | 276 | 0.0 | 3.2 | 0.03 | 0.56 | 0.08 | 79 | 1008.6 |
| 20260507080825 | 10 | 276 | 0.0 | 3.2 | 0.03 | 0.56 | 0.08 | 79 | 1008.5 |
| 20260507080612 | 10 | 273 | 0.0 | 3.2 | 0.03 | 0.56 | 0.08 | 79 | 1008.4 |
| 20260507075819 | 10 | 272 | 0.0 | 3.2 | 0.03 | 0.56 | 0.08 | 79 | 1008.6 |
| 20260507075318 | 10 | 281 | 0.0 | 4.8 | 0.03 | 0.56 | 0.08 | 79 | 1008.8 |
| 20260507074818 | 10 | 289 | 0.0 | 4.8 | 0.00 | 0.53 | 0.05 | 79 | 1008.6 |
| 20260507074317 | 10 | 289 | 1.6 | 3.2 | 0.00 | 0.53 | 0.05 | 79 | 1008.8 |
| 20260507073815 | 10 | 289 | 0.0 | 3.2 | 0.00 | 0.53 | 0.05 | 79 | 1008.9 |
| 20260507073313 | 10 | 289 | 0.0 | 1.6 | 0.00 | 0.53 | 0.05 | 79 | 1008.8 |
| 20260507073048 | 10 | 289 | 0.0 | 1.6 | 0.00 | 0.53 | 0.05 | 79 | 1008.5 |
| 20260507072313 | 10 | 289 | 0.0 | 1.6 | 0.00 | 0.53 | 0.05 | 80 | 1008.2 |
| 20260507071813 | 10 | 289 | 0.0 | 1.6 | 0.00 | 0.53 | 0.05 | 80 | 1008.1 |
| 20260507071555 | 10 | 289 | 0.0 | 3.2 | 0.00 | 0.53 | 0.05 | 80 | 1008.0 |
| 20260507070811 | 10 | 289 | 0.0 | 3.2 | 0.00 | 0.53 | 0.05 | 80 | 1007.9 |
| 20260507070311 | 10 | 288 | 0.0 | 3.2 | 0.00 | 0.53 | 0.05 | 80 | 1008.1 |
| 20260507065810 | 10 | 289 | 1.6 | 4.8 | 0.00 | 0.53 | 0.05 | 80 | 1007.9 |
| 20260507065309 | 10 | 289 | 1.6 | 4.8 | 0.00 | 0.53 | 0.05 | 80 | 1007.8 |
| 20260507064804 | 10 | 289 | 1.6 | 4.8 | 0.00 | 0.53 | 0.05 | 81 | 1007.7 |
| 20260507064306 | 11 | 285 | 1.6 | 4.8 | 0.00 | 0.53 | 0.05 | 81 | 1007.9 |
| 20260507063759 | 11 | 284 | 1.6 | 4.8 | 0.00 | 0.53 | 0.05 | 81 | 1007.9 |
| 20260507063253 | 11 | 294 | 0.0 | 3.2 | 0.00 | 0.53 | 0.05 | 81 | 1007.8 |
| 20260507063028 | 11 | 294 | 1.6 | 6.4 | 0.00 | 0.53 | 0.05 | 82 | 1007.9 |
| 20260507062241 | 11 | 294 | 1.6 | 6.4 | 0.00 | 0.53 | 0.05 | 82 | 1007.8 |
| 20260507061735 | 11 | 306 | 1.6 | 6.4 | 0.00 | 0.53 | 0.05 | 82 | 1007.6 |
| 20260507061517 | 11 | 234 | 3.2 | 6.4 | 0.00 | 0.53 | 0.05 | 82 | 1007.7 |
| 20260507060723 | 11 | 281 | 3.2 | 6.4 | 0.00 | 0.53 | 0.05 | 82 | 1007.9 |
| 20260507060217 | 11 | 298 | 3.2 | 8.0 | 0.00 | 0.53 | 0.05 | 82 | 1007.8 |
| 20260507055711 | 11 | 298 | 3.2 | 8.0 | 0.00 | 0.53 | 0.05 | 82 | 1007.8 |
| 20260507055458 | 11 | 303 | 3.2 | 8.0 | 0.00 | 0.53 | 0.05 | 82 | 1008.0 |
| 20260507054951 | 11 | 305 | 3.2 | 6.4 | 0.00 | 0.53 | 0.05 | 83 | 1008.0 |
| 20260507054209 | 12 | 280 | 1.6 | 6.4 | 0.00 | 0.53 | 0.05 | 83 | 1008.2 |
| 20260507053708 | 12 | 275 | 1.6 | 3.2 | 0.00 | 0.53 | 0.05 | 83 | 1008.4 |
| 20260507053207 | 12 | 288 | 1.6 | 3.2 | 0.00 | 0.53 | 0.05 | 83 | 1008.2 |
| 20260507052707 | 12 | 288 | 1.6 | 8.0 | 0.00 | 0.53 | 0.05 | 83 | 1008.0 |
| 20260507052205 | 12 | 288 | 3.2 | 8.0 | 0.00 | 0.53 | 0.05 | 83 | 1008.2 |
| 20260507051706 | 12 | 346 | 3.2 | 8.0 | 0.03 | 0.53 | 0.05 | 83 | 1008.3 |
| 20260507051205 | 12 | 270 | 3.2 | 8.0 | 0.03 | 0.53 | 0.05 | 83 | 1008.3 |
| 20260507050708 | 12 | 299 | 3.2 | 8.0 | 0.03 | 0.53 | 0.05 | 83 | 1008.3 |
| 20260507050205 | 12 | 311 | 3.2 | 6.4 | 0.03 | 0.53 | 0.05 | 83 | 1008.1 |
| 20260507045942 | 12 | 326 | 3.2 | 6.4 | 0.05 | 0.53 | 0.05 | 83 | 1008.2 |
| 20260507045204 | 12 | 295 | 3.2 | 8.0 | 0.08 | 0.53 | 0.05 | 83 | 1008.3 |
| 20260507044705 | 13 | 296 | 3.2 | 8.0 | 0.08 | 0.53 | 0.05 | 83 | 1008.3 |
| 20260507044205 | 13 | 305 | 3.2 | 9.7 | 0.08 | 0.53 | 0.05 | 83 | 1008.1 |
| 20260507043941 | 13 | 281 | 1.6 | 9.7 | 0.08 | 0.53 | 0.05 | 83 | 1008.1 |
| 20260507043202 | 13 | 311 | 1.6 | 6.4 | 0.08 | 0.53 | 0.05 | 83 | 1008.0 |
| 20260507042703 | 13 | 311 | 3.2 | 6.4 | 0.08 | 0.53 | 0.05 | 83 | 1007.9 |
| 20260507042443 | 13 | 305 | 1.6 | 6.4 | 0.08 | 0.53 | 0.03 | 83 | 1008.0 |
| 20260507041652 | 13 | 314 | 1.6 | 6.4 | 0.05 | 0.51 | 0.03 | 83 | 1008.0 |
| 20260507041146 | 13 | 259 | 3.2 | 8.0 | 0.05 | 0.51 | 0.03 | 84 | 1008.1 |
| 20260507040640 | 13 | 322 | 4.8 | 11.3 | 0.05 | 0.51 | 0.03 | 84 | 1008.2 |
| 20260507040142 | 13 | 284 | 4.8 | 12.9 | 0.05 | 0.51 | 0.00 | 84 | 1008.1 |
| 20260507035636 | 13 | 266 | 4.8 | 12.9 | 0.03 | 0.48 | 0.48 | 84 | 1007.9 |
| 20260507035138 | 14 | 284 | 4.8 | 12.9 | 0.00 | 0.46 | 0.46 | 84 | 1007.9 |
| 20260507034639 | 14 | 264 | 3.2 | 6.4 | 0.00 | 0.46 | 0.46 | 84 | 1007.8 |
| 20260507034137 | 14 | 257 | 4.8 | 11.3 | 0.00 | 0.46 | 0.46 | 84 | 1007.6 |
| 20260507033637 | 15 | 263 | 4.8 | 11.3 | 0.00 | 0.46 | 0.46 | 84 | 1007.7 |
| 20260507033136 | 15 | 252 | 3.2 | 11.3 | 0.00 | 0.46 | 0.46 | 84 | 1007.7 |
| 20260507032631 | 15 | 276 | 3.2 | 11.3 | 0.00 | 0.46 | 0.46 | 85 | 1007.6 |
| 20260507032132 | 15 | 242 | 3.2 | 11.3 | 0.00 | 0.46 | 0.46 | 84 | 1007.3 |
| 20260507031629 | 15 | 302 | 3.2 | 8.0 | 0.00 | 0.46 | 0.46 | 84 | 1007.3 |
| 20260507031128 | 15 | 252 | 3.2 | 6.4 | 0.00 | 0.46 | 0.46 | 84 | 1007.1 |
| 20260507030627 | 15 | 205 | 3.2 | 12.9 | 0.00 | 0.46 | 0.46 | 84 | 1007.0 |
| 20260507030127 | 15 | 270 | 3.2 | 12.9 | 0.00 | 0.46 | 0.46 | 84 | 1006.9 |
| 20260507025628 | 15 | 224 | 4.8 | 17.7 | 0.00 | 0.46 | 0.46 | 84 | 1006.9 |
| 20260507025126 | 15 | 207 | 4.8 | 17.7 | 0.00 | 0.46 | 0.46 | 84 | 1006.9 |
| 20260507024631 | 15 | 220 | 4.8 | 16.1 | 0.00 | 0.46 | 0.46 | 84 | 1007.0 |
| 20260507024123 | 15 | 195 | 4.8 | 16.1 | 0.00 | 0.46 | 0.46 | 84 | 1007.0 |
| 20260507023621 | 15 | 157 | 6.4 | 12.9 | 0.00 | 0.46 | 0.46 | 84 | 1006.9 |
| 20260507023119 | 15 | 211 | 6.4 | 14.5 | 0.00 | 0.46 | 0.46 | 84 | 1007.0 |
| 20260507022621 | 15 | 212 | 8.0 | 16.1 | 0.00 | 0.46 | 0.46 | 84 | 1007.0 |
| 20260507022118 | 15 | 208 | 6.4 | 16.1 | 0.00 | 0.46 | 0.46 | 84 | 1006.9 |
| 20260507021616 | 15 | 222 | 6.4 | 12.9 | 0.00 | 0.46 | 0.46 | 84 | 1006.9 |
| 20260507021115 | 15 | 223 | 4.8 | 12.9 | 0.00 | 0.46 | 0.46 | 84 | 1006.8 |
| 20260507020615 | 15 | 192 | 3.2 | 9.7 | 0.00 | 0.46 | 0.46 | 84 | 1006.7 |
| 20260507020114 | 15 | 186 | 4.8 | 12.9 | 0.00 | 0.46 | 0.46 | 84 | 1006.8 |
| 20260507015613 | 15 | 161 | 6.4 | 12.9 | 0.00 | 0.46 | 0.46 | 84 | 1006.8 |
| 20260507015112 | 15 | 243 | 6.4 | 12.9 | 0.00 | 0.46 | 0.46 | 84 | 1007.0 |
| 20260507014612 | 15 | 203 | 6.4 | 12.9 | 0.00 | 0.46 | 0.46 | 84 | 1007.0 |
| 20260507014354 | 15 | 234 | 4.8 | 12.9 | 0.00 | 0.46 | 0.46 | 84 | 1007.1 |
| 20260507013610 | 15 | 224 | 4.8 | 11.3 | 0.00 | 0.46 | 0.46 | 84 | 1007.1 |
| 20260507013108 | 15 | 184 | 4.8 | 11.3 | 0.00 | 0.46 | 0.46 | 84 | 1007.0 |
| 20260507012606 | 15 | 211 | 4.8 | 11.3 | 0.00 | 0.46 | 0.46 | 83 | 1006.9 |
| 20260507012108 | 15 | 210 | 6.4 | 16.1 | 0.00 | 0.46 | 0.46 | 83 | 1007.1 |
| 20260507011603 | 15 | 213 | 6.4 | 16.1 | 0.00 | 0.46 | 0.46 | 83 | 1007.1 |
| 20260507011340 | 15 | 201 | 6.4 | 12.9 | 0.00 | 0.46 | 0.46 | 83 | 1007.0 |
| 20260507010814 | 15 | 212 | 6.4 | 17.7 | 0.00 | 0.46 | 0.46 | 83 | 1007.1 |
| 20260507010554 | 15 | 212 | 6.4 | 17.7 | 0.00 | 0.46 | 0.46 | 83 | 1007.1 |
| 20260507010116 | 15 | 149 | 4.8 | 17.7 | 0.00 | 0.46 | 0.46 | 83 | 1007.1 |
| 20260507005547 | 15 | 185 | 4.8 | 11.3 | 0.00 | 0.46 | 0.46 | 83 | 1007.0 |
| 20260507005045 | 15 | 207 | 6.4 | 12.9 | 0.00 | 0.46 | 0.46 | 83 | 1007.0 |
| 20260507004547 | 15 | 176 | 8.0 | 14.5 | 0.00 | 0.46 | 0.46 | 83 | 1006.9 |
| 20260507004040 | 15 | 147 | 6.4 | 14.5 | 0.00 | 0.46 | 0.46 | 82 | 1007.1 |
| 20260507003539 | 15 | 187 | 6.4 | 12.9 | 0.00 | 0.46 | 0.46 | 82 | 1007.0 |
| 20260507003321 | 15 | 143 | 4.8 | 11.3 | 0.00 | 0.46 | 0.46 | 82 | 1006.9 |
| 20260507002539 | 15 | 188 | 4.8 | 12.9 | 0.00 | 0.46 | 0.46 | 82 | 1006.9 |
| 20260507002038 | 15 | 194 | 4.8 | 12.9 | 0.03 | 0.46 | 0.46 | 82 | 1006.9 |
| 20260507001539 | 15 | 203 | 4.8 | 11.3 | 0.03 | 0.46 | 0.46 | 82 | 1007.0 |
| 20260507001038 | 15 | 172 | 6.4 | 16.1 | 0.05 | 0.46 | 0.46 | 82 | 1006.9 |
| 20260507000613 | 15 | 178 | 6.4 | 19.3 | 0.13 | 0.46 | 0.46 | 81 | 1006.8 |
| 20260507000603 | 15 | 228 | 4.8 | 16.1 | 0.10 | 0.46 | 0.46 | 82 | 1006.9 |
| 20260506235613 | 15 | 186 | 6.4 | 12.9 | 0.15 | 0.46 | 0.46 | 81 | 1006.8 |
| 20260506235601 | 15 | 182 | 6.4 | 19.3 | 0.13 | 0.46 | 0.46 | 81 | 1006.7 |
| 20260506234533 | 15 | 195 | 6.4 | 12.9 | 0.18 | 0.46 | 0.46 | 81 | 1006.8 |
| 20260506234033 | 15 | 204 | 6.4 | 11.3 | 0.18 | 0.46 | 0.46 | 81 | 1006.8 |
| 20260506233532 | 15 | 169 | 4.8 | 12.9 | 0.20 | 0.46 | 0.46 | 81 | 1006.7 |
| 20260506233032 | 15 | 199 | 6.4 | 17.7 | 0.23 | 0.46 | 0.46 | 81 | 1006.8 |
| 20260506232531 | 15 | 161 | 6.4 | 17.7 | 0.23 | 0.46 | 0.46 | 80 | 1006.7 |
| 20260506232031 | 15 | 226 | 6.4 | 17.7 | 0.20 | 0.43 | 0.43 | 80 | 1006.8 |
| 20260506231531 | 15 | 191 | 8.0 | 14.5 | 0.20 | 0.43 | 0.43 | 80 | 1006.8 |
| 20260506231034 | 15 | 134 | 6.4 | 16.1 | 0.18 | 0.41 | 0.38 | 80 | 1006.8 |
| 20260506230531 | 15 | 184 | 6.4 | 17.7 | 0.13 | 0.36 | 0.36 | 80 | 1006.9 |
| 20260506230037 | 15 | 220 | 6.4 | 17.7 | 0.10 | 0.33 | 0.33 | 79 | 1007.0 |
| 20260506225532 | 15 | 178 | 6.4 | 16.1 | 0.10 | 0.33 | 0.30 | 79 | 1007.1 |
| 20260506225032 | 15 | 182 | 8.0 | 16.1 | 0.10 | 0.30 | 0.30 | 79 | 1007.0 |
| 20260506224528 | 15 | 190 | 8.0 | 16.1 | 0.08 | 0.28 | 0.28 | 79 | 1007.1 |
| 20260506224028 | 15 | 213 | 8.0 | 22.5 | 0.08 | 0.28 | 0.28 | 79 | 1007.0 |
| 20260506223524 | 15 | 169 | 6.4 | 22.5 | 0.05 | 0.25 | 0.25 | 79 | 1007.1 |
| 20260506223023 | 15 | 182 | 6.4 | 12.9 | 0.03 | 0.23 | 0.23 | 79 | 1007.1 |
| 20260506222522 | 15 | 213 | 8.0 | 16.1 | 0.03 | 0.23 | 0.23 | 78 | 1007.2 |
| 20260506222023 | 15 | 177 | 9.7 | 17.7 | 0.03 | 0.23 | 0.23 | 78 | 1007.1 |